FB6 weather

CLOSED Skocdopole Farms Airport
Alberta, Canada

Public forecast

Using degrees Celsius for public forecast. Weather courtesy of forecast.io.

METAR (pilot weather report)

Closest report is Red Deer Regional Airport, 26.0 nm (48.1 km) N. Retrieved 2019/07/17 03:00 UTC (35 minutes ago):

CYQF 170300Z VRB02KT 15SM FEW025TCU FEW100 SCT250 17/12 A2986 RMK TCU1AC1CI1 SLP120 DENSITY ALT 4000FT

TAF (pilot weather forecast)

Forecast is more than 12 hours old.

Closest forecast is Red Deer Regional Airport, 26.0 nm (48.1 km) N. Retrieved 2019/07/16 00:48 UTC (1 day ago):

TAF CYQF 162344Z 1700/1712 VRB03KT P6SM SCT030 SCT250 TEMPO 1700/1705 P6SM VCSH BKN030 BKN250 FM170500 18006KT P6SM FEW030 PROB30 1709/1712 1SM BR RMK NXT FCST BY 170600Z